createdAt,value
2019-01-04T00:01:14.717Z,16.60
2019-01-04T00:03:42.886Z,17.07
2019-01-04T00:06:11.044Z,17.97
2019-01-04T00:08:39.207Z,18.47
2019-01-04T00:11:07.348Z,19.67
2019-01-04T00:13:35.520Z,19.33
2019-01-04T00:16:04.341Z,24.13
2019-01-04T00:18:32.504Z,31.33
2019-01-04T00:21:00.669Z,33.23
2019-01-04T00:23:28.836Z,27.73
2019-01-04T00:25:57.385Z,26.80
2019-01-04T00:28:25.554Z,23.33
2019-01-04T00:30:54.111Z,24.13
2019-01-04T00:33:22.273Z,23.20
2019-01-04T00:35:50.853Z,22.70
2019-01-04T00:38:19.010Z,21.13
2019-01-04T00:40:47.420Z,21.47
2019-01-04T00:43:16.005Z,20.83
2019-01-04T00:45:44.466Z,19.60
2019-01-04T00:48:13.258Z,18.87
2019-01-04T00:50:41.493Z,19.00
2019-01-04T00:53:09.654Z,18.00
2019-01-04T00:55:42.475Z,18.20
2019-01-04T00:58:16.856Z,18.07
2019-01-04T01:00:46.536Z,17.43
2019-01-04T01:03:43.824Z,16.43
2019-01-04T01:06:16.445Z,16.17
2019-01-04T01:09:04.184Z,15.97
2019-01-04T01:11:50.424Z,16.13
2019-01-04T01:14:22.776Z,14.80
2019-01-04T01:17:12.350Z,15.13
2019-01-04T01:19:42.056Z,14.60
2019-01-04T01:22:28.272Z,14.73
2019-01-04T01:25:14.458Z,15.60
2019-01-04T01:28:00.509Z,14.07
2019-01-04T01:30:45.451Z,15.17
2019-01-04T01:33:17.778Z,14.60
2019-01-04T01:36:04.115Z,13.53
2019-01-04T01:38:45.840Z,14.47
2019-01-04T01:41:15.536Z,14.40
2019-01-04T01:44:02.294Z,13.23
2019-01-04T01:46:31.981Z,13.53
2019-01-04T01:49:22.699Z,13.67
2019-01-04T01:51:58.839Z,14.40
2019-01-04T01:54:27.003Z,13.37
2019-01-04T01:56:55.143Z,13.70
2019-01-04T01:59:23.295Z,14.77
2019-01-04T02:01:51.777Z,14.33
2019-01-04T02:04:19.919Z,14.10
2019-01-04T02:06:48.067Z,14.57
2019-01-04T02:09:16.242Z,15.00
2019-01-04T02:11:44.378Z,14.60
2019-01-04T02:14:12.544Z,15.70
2019-01-04T02:16:40.742Z,14.07
2019-01-04T02:19:08.889Z,14.17
2019-01-04T02:21:37.450Z,14.50
2019-01-04T02:24:05.597Z,13.87
2019-01-04T02:26:33.725Z,15.07
2019-01-04T02:29:01.885Z,14.80
2019-01-04T02:31:30.057Z,15.43
2019-01-04T02:33:58.221Z,15.00
2019-01-04T02:36:26.701Z,14.73
2019-01-04T02:38:55.198Z,14.60
2019-01-04T02:41:23.337Z,14.17
2019-01-04T02:43:51.496Z,14.47
2019-01-04T02:46:19.650Z,14.67
2019-01-04T02:48:47.793Z,14.47
2019-01-04T02:51:15.959Z,15.60
2019-01-04T02:53:44.102Z,15.77
2019-01-04T02:56:12.326Z,16.10
2019-01-04T02:58:40.801Z,16.50
2019-01-04T03:01:09.319Z,14.93
2019-01-04T03:03:37.731Z,16.03
2019-01-04T03:06:05.856Z,15.93
2019-01-04T03:08:34.015Z,16.87
2019-01-04T03:11:02.165Z,14.97
2019-01-04T03:13:30.319Z,16.80
2019-01-04T03:15:58.807Z,15.80
2019-01-04T03:18:27.537Z,16.03
2019-01-04T03:20:55.691Z,16.83
2019-01-04T03:23:23.844Z,16.53
2019-01-04T03:25:51.975Z,15.10
2019-01-04T03:28:20.110Z,16.00
2019-01-04T03:30:48.358Z,15.63
2019-01-04T03:33:16.514Z,15.70
2019-01-04T03:35:45.012Z,15.73
2019-01-04T03:38:13.186Z,15.77
2019-01-04T03:40:41.653Z,14.43
2019-01-04T03:43:10.137Z,14.80
2019-01-04T03:45:38.314Z,15.87
2019-01-04T03:48:06.788Z,15.73
2019-01-04T03:50:34.999Z,15.23
2019-01-04T03:53:03.164Z,15.20
2019-01-04T03:55:31.340Z,15.43
2019-01-04T03:57:59.497Z,14.50
2019-01-04T04:00:27.690Z,14.23
2019-01-04T04:02:56.149Z,15.67
2019-01-04T04:05:24.314Z,15.80
2019-01-04T04:07:52.800Z,15.33
2019-01-04T04:10:21.274Z,16.10
2019-01-04T04:12:49.451Z,15.77
2019-01-04T04:15:17.600Z,16.63
2019-01-04T04:17:45.745Z,16.47
2019-01-04T04:20:13.924Z,16.73
2019-01-04T04:22:42.987Z,17.07
2019-01-04T04:25:11.143Z,15.63
2019-01-04T04:27:39.381Z,15.10
2019-01-04T04:30:07.793Z,15.50
2019-01-04T04:32:35.924Z,15.50
2019-01-04T04:35:04.881Z,14.87
2019-01-04T04:37:33.442Z,15.43
2019-01-04T04:40:01.662Z,14.97
2019-01-04T04:42:29.824Z,17.23
2019-01-04T04:44:57.954Z,15.53
2019-01-04T04:47:26.111Z,15.80
2019-01-04T04:49:54.332Z,15.37
2019-01-04T04:52:22.492Z,15.47
2019-01-04T04:54:50.973Z,15.70
2019-01-04T04:57:19.435Z,15.13
2019-01-04T04:59:47.642Z,14.40
2019-01-04T05:02:15.847Z,13.73
2019-01-04T05:04:44.011Z,14.33
2019-01-04T05:07:12.181Z,15.73
2019-01-04T05:09:40.322Z,14.43
2019-01-04T05:12:08.806Z,15.00
2019-01-04T05:14:37.293Z,14.40
2019-01-04T05:17:05.883Z,13.80
2019-01-04T05:19:34.050Z,15.80
2019-01-04T05:22:02.199Z,14.33
2019-01-04T05:24:30.367Z,13.40
2019-01-04T05:26:58.505Z,15.00
2019-01-04T05:29:26.683Z,14.33
2019-01-04T05:31:54.826Z,15.33
2019-01-04T05:34:22.968Z,15.23
2019-01-04T05:36:51.138Z,14.30
2019-01-04T05:39:19.334Z,14.47
2019-01-04T05:41:47.863Z,13.80
2019-01-04T05:44:16.336Z,15.07
2019-01-04T05:46:44.506Z,15.53
2019-01-04T05:49:12.652Z,14.90
2019-01-04T05:51:41.114Z,13.80
2019-01-04T05:54:09.291Z,14.60
2019-01-04T05:56:37.420Z,13.30
2019-01-04T05:59:05.584Z,14.10
2019-01-04T06:01:33.721Z,14.77
2019-01-04T06:04:01.893Z,13.90
2019-01-04T06:06:30.046Z,13.53
2019-01-04T06:08:58.213Z,13.97
2019-01-04T06:11:26.354Z,13.77
2019-01-04T06:13:54.828Z,13.53
2019-01-04T06:16:23.317Z,14.43
2019-01-04T06:18:51.460Z,14.53
2019-01-04T06:21:19.611Z,13.73
2019-01-04T06:23:47.741Z,15.03
2019-01-04T06:26:16.269Z,15.93
2019-01-04T06:28:44.755Z,15.87
2019-01-04T06:31:13.220Z,15.63
2019-01-04T06:33:41.718Z,15.03
2019-01-04T06:36:09.871Z,16.57
2019-01-04T06:38:38.031Z,15.83
2019-01-04T06:41:06.188Z,15.40
2019-01-04T06:43:34.720Z,17.80
2019-01-04T06:46:03.252Z,17.97
2019-01-04T06:48:31.744Z,16.90
2019-01-04T06:50:59.960Z,17.37
2019-01-04T06:53:28.195Z,16.13
2019-01-04T06:55:56.343Z,16.87
2019-01-04T06:58:24.483Z,17.07
2019-01-04T07:00:52.626Z,16.20
2019-01-04T07:03:20.776Z,17.13
2019-01-04T07:05:49.291Z,16.20
2019-01-04T07:08:17.792Z,14.93
2019-01-04T07:10:46.757Z,15.70
2019-01-04T07:13:14.877Z,16.77
2019-01-04T07:15:43.102Z,14.93
2019-01-04T07:18:11.611Z,15.37
2019-01-04T07:20:40.207Z,17.90
2019-01-04T07:23:08.362Z,16.23
2019-01-04T07:25:36.819Z,15.77
2019-01-04T07:28:04.986Z,16.03
2019-01-04T07:30:33.165Z,14.60
2019-01-04T07:33:01.341Z,16.30
2019-01-04T07:35:29.553Z,16.90
2019-01-04T07:37:58.074Z,17.23
2019-01-04T07:40:26.245Z,17.30
2019-01-04T07:42:54.837Z,16.70
2019-01-04T07:45:23.347Z,17.70
2019-01-04T07:47:51.491Z,16.87
2019-01-04T07:50:19.650Z,17.40
2019-01-04T07:52:47.792Z,16.30
2019-01-04T07:55:16.261Z,16.97
2019-01-04T07:57:44.759Z,16.60
2019-01-04T08:00:13.640Z,16.87
2019-01-04T08:02:42.546Z,16.43
2019-01-04T08:05:14.412Z,16.77
2019-01-04T08:07:42.895Z,17.73
2019-01-04T08:10:11.472Z,17.13
2019-01-04T08:12:39.618Z,16.43
2019-01-04T08:15:08.723Z,15.70
2019-01-04T08:17:37.233Z,17.33
2019-01-04T08:20:08.247Z,16.27
2019-01-04T08:22:36.404Z,18.33
2019-01-04T08:25:05.420Z,17.13
2019-01-04T08:27:33.862Z,16.43
2019-01-04T08:30:02.023Z,18.00
2019-01-04T08:32:30.222Z,17.03
2019-01-04T08:34:58.381Z,17.43
2019-01-04T08:37:26.518Z,18.10
2019-01-04T08:39:54.703Z,16.37
2019-01-04T08:42:22.843Z,16.17
2019-01-04T08:44:51.021Z,16.17
2019-01-04T08:47:19.483Z,16.57
2019-01-04T08:49:47.983Z,17.40
2019-01-04T08:52:16.448Z,17.13
2019-01-04T08:54:44.587Z,16.77
2019-01-04T08:57:12.750Z,17.90
2019-01-04T08:59:40.888Z,18.70
2019-01-04T09:02:09.056Z,20.17
2019-01-04T09:04:37.232Z,24.17
2019-01-04T09:07:05.707Z,23.20
2019-01-04T09:09:33.882Z,21.67
2019-01-04T09:12:02.040Z,20.97
2019-01-04T09:14:30.512Z,20.00
2019-01-04T09:17:00.119Z,19.80
2019-01-04T09:19:29.098Z,18.57
2019-01-04T09:21:57.290Z,17.27
2019-01-04T09:24:25.461Z,17.03
2019-01-04T09:26:53.921Z,16.30
2019-01-04T09:29:22.403Z,17.13
2019-01-04T09:31:50.891Z,16.07
2019-01-04T09:34:19.056Z,17.80
2019-01-04T09:36:47.539Z,16.30
2019-01-04T09:39:15.717Z,15.27
2019-01-04T09:41:44.399Z,15.13
2019-01-04T09:44:12.891Z,15.83
2019-01-04T09:46:41.388Z,15.83
2019-01-04T09:49:09.840Z,15.80
2019-01-04T09:51:37.997Z,17.00
2019-01-04T09:54:06.206Z,17.40
2019-01-04T09:56:34.709Z,15.40
2019-01-04T09:59:03.193Z,15.37
2019-01-04T10:01:31.700Z,15.80
2019-01-04T10:03:59.904Z,16.33
2019-01-04T10:06:28.137Z,15.60
2019-01-04T10:08:56.283Z,16.73
2019-01-04T10:11:24.440Z,15.53
2019-01-04T10:13:52.937Z,15.93
2019-01-04T10:16:21.419Z,16.87
2019-01-04T10:18:50.036Z,16.23
2019-01-04T10:21:18.180Z,16.30
2019-01-04T10:23:46.348Z,17.57
2019-01-04T10:26:14.479Z,15.63
2019-01-04T10:28:42.706Z,15.93
2019-01-04T10:31:10.873Z,16.73
2019-01-04T10:33:39.335Z,17.00
2019-01-04T10:36:07.849Z,15.87
2019-01-04T10:38:36.258Z,16.03
2019-01-04T10:41:04.477Z,15.70
2019-01-04T10:43:32.647Z,16.37
2019-01-04T10:46:01.126Z,17.13
2019-01-04T10:48:29.593Z,16.30
2019-01-04T10:50:58.060Z,19.50
2019-01-04T10:53:26.557Z,19.13
2019-01-04T10:55:55.045Z,20.60
2019-01-04T10:58:23.223Z,34.07
2019-01-04T11:00:51.362Z,36.33
2019-01-04T11:03:19.874Z,41.60
2019-01-04T11:05:48.028Z,33.63
2019-01-04T11:08:16.433Z,34.17
2019-01-04T11:10:44.909Z,31.20
2019-01-04T11:13:13.070Z,29.23
2019-01-04T11:15:41.640Z,25.67
2019-01-04T11:18:10.081Z,24.67
2019-01-04T11:20:39.394Z,23.93
2019-01-04T11:23:09.092Z,22.77
2019-01-04T11:25:52.497Z,23.03
2019-01-04T11:28:33.278Z,21.87
2019-01-04T11:31:21.399Z,21.10
2019-01-04T11:33:52.957Z,19.70
2019-01-04T11:36:28.145Z,20.07
2019-01-04T11:38:59.775Z,19.13
2019-01-04T11:41:35.338Z,19.27
2019-01-04T11:44:05.027Z,18.73
2019-01-04T11:46:39.495Z,17.73
2019-01-04T11:49:26.168Z,16.93
2019-01-04T11:51:55.936Z,17.40
2019-01-04T11:54:24.155Z,16.53
2019-01-04T11:56:52.571Z,15.50
2019-01-04T11:59:20.722Z,16.80
2019-01-04T12:01:49.196Z,16.33
2019-01-04T12:04:17.357Z,16.07
2019-01-04T12:06:45.825Z,15.80
2019-01-04T12:09:14.009Z,15.90
2019-01-04T12:11:42.150Z,16.37
2019-01-04T12:14:10.322Z,17.47
2019-01-04T12:16:38.465Z,16.13
2019-01-04T12:19:06.619Z,16.00
2019-01-04T12:21:34.799Z,16.80
2019-01-04T12:24:03.009Z,17.00
2019-01-04T12:26:31.168Z,16.93
2019-01-04T12:28:59.950Z,16.33
2019-01-04T12:31:28.079Z,14.73
2019-01-04T12:33:56.917Z,15.83
2019-01-04T12:36:25.082Z,16.83
2019-01-04T12:38:53.399Z,15.30
2019-01-04T12:41:21.939Z,17.40
2019-01-04T12:43:50.433Z,15.53
2019-01-04T12:46:18.893Z,20.10
2019-01-04T12:48:47.055Z,22.53
2019-01-04T12:51:15.198Z,20.40
2019-01-04T12:53:43.695Z,21.07
2019-01-04T12:56:12.185Z,20.97
2019-01-04T12:58:40.672Z,20.67
2019-01-04T13:01:09.151Z,19.60
2019-01-04T13:03:39.572Z,17.93
2019-01-04T13:06:07.707Z,18.80
2019-01-04T13:08:35.858Z,17.47
2019-01-04T13:11:04.126Z,17.30
2019-01-04T13:13:32.751Z,17.30
2019-01-04T13:16:01.480Z,16.50
2019-01-04T13:18:29.649Z,16.70
2019-01-04T13:20:57.850Z,16.17
2019-01-04T13:23:26.037Z,16.53
2019-01-04T13:25:54.162Z,16.70
2019-01-04T13:28:22.332Z,16.17
2019-01-04T13:30:50.819Z,16.63
2019-01-04T13:33:19.312Z,16.90
2019-01-04T13:35:47.783Z,16.30
2019-01-04T13:38:20.021Z,16.07
2019-01-04T13:40:45.889Z,15.93
2019-01-04T13:43:14.163Z,16.27
2019-01-04T13:45:43.618Z,16.27
2019-01-04T13:48:12.166Z,16.83
2019-01-04T13:50:40.396Z,16.33
2019-01-04T13:53:08.560Z,16.10
2019-01-04T13:55:36.717Z,16.37
2019-01-04T13:58:04.892Z,16.43
2019-01-04T14:00:33.370Z,17.30
2019-01-04T14:03:01.506Z,17.97
2019-01-04T14:05:29.665Z,18.73
2019-01-04T14:07:57.792Z,18.10
2019-01-04T14:10:25.942Z,19.60
2019-01-04T14:12:54.153Z,21.27
2019-01-04T14:15:22.637Z,20.27
2019-01-04T14:17:50.796Z,20.67
2019-01-04T14:20:18.941Z,20.57
2019-01-04T14:22:47.070Z,21.30
2019-01-04T14:25:15.214Z,20.47
2019-01-04T14:27:43.376Z,19.53
2019-01-04T14:30:11.809Z,19.27
2019-01-04T14:32:40.315Z,17.20
2019-01-04T14:35:09.206Z,17.80
2019-01-04T14:37:37.374Z,17.30
2019-01-04T14:40:07.061Z,16.37
2019-01-04T14:42:35.221Z,16.23
2019-01-04T14:45:03.750Z,16.83
2019-01-04T14:47:31.917Z,16.33
2019-01-04T14:50:00.133Z,16.67
2019-01-04T14:52:28.317Z,16.10
2019-01-04T14:54:57.152Z,17.37
2019-01-04T14:57:25.621Z,16.33
2019-01-04T14:59:53.790Z,17.87
2019-01-04T15:02:21.934Z,15.80
2019-01-04T15:04:50.099Z,14.93
2019-01-04T15:07:18.235Z,17.70
2019-01-04T15:09:46.412Z,17.13
2019-01-04T15:12:14.886Z,17.67
2019-01-04T15:14:43.440Z,17.90
2019-01-04T15:17:11.912Z,16.87
2019-01-04T15:19:40.063Z,17.47
2019-01-04T15:22:08.234Z,18.20
2019-01-04T15:24:36.358Z,16.17
2019-01-04T15:27:04.525Z,17.13
2019-01-04T15:29:32.677Z,16.70
2019-01-04T15:32:01.169Z,17.03
2019-01-04T15:34:30.731Z,17.20
2019-01-04T15:36:59.329Z,17.87
2019-01-04T15:39:27.787Z,17.73
2019-01-04T15:41:55.963Z,17.80
2019-01-04T15:44:24.456Z,17.10
2019-01-04T15:46:52.635Z,17.77
2019-01-04T15:49:21.108Z,16.70
2019-01-04T15:51:49.570Z,16.80
2019-01-04T15:54:18.676Z,16.77
2019-01-04T15:56:47.220Z,16.57
2019-01-04T15:59:15.759Z,16.13
2019-01-04T16:01:43.897Z,17.50
2019-01-04T16:04:12.046Z,16.23
2019-01-04T16:06:40.216Z,17.33
2019-01-04T16:09:08.710Z,16.77
2019-01-04T16:11:37.209Z,17.23
2019-01-04T16:14:05.355Z,16.70
2019-01-04T16:16:33.602Z,16.70
2019-01-04T16:19:01.733Z,16.07
2019-01-04T16:21:30.217Z,16.93
2019-01-04T16:23:58.946Z,16.50
2019-01-04T16:26:27.083Z,18.10
2019-01-04T16:28:55.251Z,17.13
2019-01-04T16:31:23.410Z,16.00
2019-01-04T16:33:51.564Z,16.73
2019-01-04T16:36:19.728Z,16.60
2019-01-04T16:38:47.864Z,16.57
2019-01-04T16:41:16.404Z,16.67
2019-01-04T16:43:44.880Z,16.37
2019-01-04T16:46:13.424Z,15.23
2019-01-04T16:48:41.627Z,15.47
2019-01-04T16:51:10.000Z,15.40
2019-01-04T16:53:38.164Z,15.87
2019-01-04T16:56:06.312Z,16.17
2019-01-04T16:58:34.852Z,14.97
2019-01-04T17:01:03.498Z,14.73
2019-01-04T17:03:31.642Z,16.23
2019-01-04T17:05:59.863Z,14.77
2019-01-04T17:08:28.043Z,14.90
2019-01-04T17:10:56.198Z,15.57
2019-01-04T17:13:24.335Z,14.17
2019-01-04T17:15:52.480Z,15.80
2019-01-04T17:18:20.626Z,15.70
2019-01-04T17:20:48.782Z,15.13
2019-01-04T17:23:17.204Z,15.53
2019-01-04T17:25:45.696Z,16.07
2019-01-04T17:28:13.853Z,16.53
2019-01-04T17:30:42.266Z,15.10
2019-01-04T17:33:10.718Z,15.17
2019-01-04T17:35:39.197Z,15.13
2019-01-04T17:38:07.340Z,15.13
2019-01-04T17:40:35.811Z,14.50
2019-01-04T17:43:04.027Z,14.63
2019-01-04T17:45:32.803Z,14.43
2019-01-04T17:48:01.288Z,15.90
2019-01-04T17:50:29.432Z,14.60
2019-01-04T17:52:57.597Z,16.50
2019-01-04T17:55:25.745Z,15.70
2019-01-04T17:57:54.239Z,21.63
2019-01-04T18:00:23.242Z,22.60
2019-01-04T18:02:51.526Z,20.33
2019-01-04T18:05:19.656Z,19.00
2019-01-04T18:07:47.885Z,18.27
2019-01-04T18:10:16.031Z,17.10
2019-01-04T18:12:44.511Z,16.40
2019-01-04T18:15:13.070Z,17.47
2019-01-04T18:17:41.223Z,15.67
2019-01-04T18:20:10.974Z,15.80
2019-01-04T18:22:39.305Z,15.23
2019-01-04T18:25:07.529Z,15.30
2019-01-04T18:27:35.667Z,15.40
2019-01-04T18:30:04.993Z,15.97
2019-01-04T18:32:33.483Z,15.50
2019-01-04T18:35:02.046Z,14.53
2019-01-04T18:37:30.171Z,14.73
2019-01-04T18:39:58.678Z,15.03
2019-01-04T18:42:27.157Z,15.97
2019-01-04T18:44:55.664Z,15.37
2019-01-04T18:47:24.572Z,14.77
2019-01-04T18:49:53.391Z,15.17
2019-01-04T18:52:21.888Z,16.50
2019-01-04T18:54:50.017Z,15.93
2019-01-04T18:57:18.551Z,15.53
2019-01-04T18:59:46.678Z,14.90
2019-01-04T19:02:14.852Z,14.83
2019-01-04T19:04:43.026Z,14.47
2019-01-04T19:07:11.487Z,15.77
2019-01-04T19:09:39.974Z,14.53
2019-01-04T19:12:08.145Z,15.30
2019-01-04T19:14:38.271Z,15.30
2019-01-04T19:17:06.435Z,15.27
2019-01-04T19:19:34.585Z,14.80
2019-01-04T19:22:02.748Z,14.63
2019-01-04T19:24:30.899Z,14.90
2019-01-04T19:26:59.076Z,14.83
2019-01-04T19:29:27.213Z,15.40
2019-01-04T19:31:55.393Z,15.50
2019-01-04T19:34:23.563Z,15.67
2019-01-04T19:36:51.747Z,15.77
2019-01-04T19:39:19.877Z,14.93
2019-01-04T19:41:48.016Z,15.70
2019-01-04T19:44:16.499Z,15.47
2019-01-04T19:46:45.008Z,15.00
2019-01-04T19:49:13.492Z,15.43
2019-01-04T19:51:41.658Z,14.70
2019-01-04T19:54:09.821Z,14.80
2019-01-04T19:56:37.966Z,14.80
2019-01-04T19:59:06.534Z,14.03
2019-01-04T20:01:35.354Z,14.37
2019-01-04T20:04:03.519Z,15.77
2019-01-04T20:06:56.215Z,14.80
2019-01-04T20:09:45.954Z,14.70
2019-01-04T20:12:36.765Z,14.73
2019-01-04T20:15:19.059Z,14.47
2019-01-04T20:18:07.298Z,14.93
2019-01-04T20:20:40.173Z,14.63
2019-01-04T20:23:26.461Z,13.40
2019-01-04T20:26:14.657Z,13.57
2019-01-04T20:29:01.397Z,14.33
2019-01-04T20:31:40.264Z,14.13
2019-01-04T20:34:13.089Z,14.63
2019-01-04T20:36:48.969Z,15.67
2019-01-04T20:39:35.076Z,15.07
2019-01-04T20:42:04.866Z,14.27
2019-01-04T20:44:43.859Z,14.30
2019-01-04T20:47:30.299Z,13.70
2019-01-04T20:50:00.228Z,14.77
2019-01-04T20:52:30.039Z,13.83
2019-01-04T20:55:15.226Z,15.30
2019-01-04T20:58:01.471Z,14.20
2019-01-04T21:00:31.286Z,14.10
2019-01-04T21:03:13.224Z,13.93
2019-01-04T21:05:58.517Z,15.23
2019-01-04T21:08:37.563Z,15.10
2019-01-04T21:11:14.114Z,14.33
2019-01-04T21:14:00.689Z,14.70
2019-01-04T21:16:47.082Z,13.43
2019-01-04T21:19:17.202Z,14.13
2019-01-04T21:22:03.872Z,13.43
2019-01-04T21:24:43.178Z,14.53
2019-01-04T21:27:12.960Z,14.10
2019-01-04T21:29:45.866Z,14.93
2019-01-04T21:32:15.666Z,14.83
2019-01-04T21:34:48.318Z,15.13
2019-01-04T21:37:36.454Z,15.07
2019-01-04T21:40:22.773Z,15.47
2019-01-04T21:42:53.192Z,15.17
2019-01-04T21:45:26.037Z,14.63
2019-01-04T21:48:11.155Z,15.50
2019-01-04T21:50:55.677Z,14.83
2019-01-04T21:53:37.100Z,15.43
2019-01-04T21:56:09.465Z,16.27
2019-01-04T21:58:51.116Z,15.57
2019-01-04T22:01:26.704Z,17.23
2019-01-04T22:04:05.951Z,16.67
2019-01-04T22:06:35.755Z,16.87
2019-01-04T22:09:06.923Z,15.53
2019-01-04T22:11:37.053Z,16.17
2019-01-04T22:14:22.112Z,16.67
2019-01-04T22:17:03.677Z,16.40
2019-01-04T22:19:42.604Z,15.70
2019-01-04T22:22:12.375Z,16.03
2019-01-04T22:24:42.176Z,15.63
2019-01-04T22:27:21.174Z,16.60
2019-01-04T22:30:07.865Z,15.00
2019-01-04T22:32:37.655Z,16.90
2019-01-04T22:35:25.538Z,15.90
2019-01-04T22:37:58.533Z,16.73
2019-01-04T22:40:30.888Z,15.60
2019-01-04T22:43:03.692Z,17.30
2019-01-04T22:45:39.193Z,16.50
2019-01-04T22:48:09.324Z,15.97
2019-01-04T22:50:39.687Z,16.87
2019-01-04T22:53:25.828Z,16.60
2019-01-04T22:56:04.310Z,16.37
2019-01-04T22:58:34.465Z,16.87
2019-01-04T23:01:04.229Z,15.67
2019-01-04T23:03:50.432Z,16.50
2019-01-04T23:06:23.525Z,16.43
2019-01-04T23:08:56.721Z,18.00
2019-01-04T23:11:29.814Z,16.80
2019-01-04T23:13:59.919Z,16.40
2019-01-04T23:16:46.594Z,16.87
2019-01-04T23:19:16.352Z,15.97
2019-01-04T23:21:59.604Z,15.97
2019-01-04T23:24:45.764Z,16.90
2019-01-04T23:27:32.246Z,16.37
2019-01-04T23:30:13.982Z,16.23
2019-01-04T23:32:55.836Z,16.00
2019-01-04T23:35:41.830Z,14.57
2019-01-04T23:38:26.739Z,15.87
2019-01-04T23:41:13.106Z,14.60
2019-01-04T23:43:49.048Z,15.40
2019-01-04T23:46:30.439Z,15.47
2019-01-04T23:49:09.829Z,14.77
2019-01-04T23:51:48.727Z,14.03
2019-01-04T23:54:18.553Z,13.83
2019-01-04T23:56:51.484Z,14.53
2019-01-04T23:59:27.140Z,13.60
